createdAt,value
2019-04-04T00:01:21.089Z,100135.39
2019-04-04T00:04:10.220Z,100142.57
2019-04-04T00:06:59.426Z,100128.56
2019-04-04T00:09:48.653Z,100115.98
2019-04-04T00:12:39.100Z,100120.48
2019-04-04T00:15:28.390Z,100117.12
2019-04-04T00:18:18.048Z,100121.69
2019-04-04T00:21:07.300Z,100104.25
2019-04-04T00:23:56.376Z,100101.74
2019-04-04T00:26:45.927Z,100101.48
2019-04-04T00:29:35.097Z,100091.48
2019-04-04T00:32:24.306Z,100098.70
2019-04-04T00:35:13.536Z,100103.73
2019-04-04T00:38:06.626Z,100112.69
2019-04-04T00:40:53.927Z,100108.91
2019-04-04T00:43:42.716Z,100102.02
2019-04-04T00:46:32.457Z,100105.73
2019-04-04T00:49:21.635Z,100108.89
2019-04-04T00:52:10.948Z,100118.81
2019-04-04T00:55:00.874Z,100111.92
2019-04-04T00:57:50.872Z,100115.59
2019-04-04T01:00:40.527Z,100111.27
2019-04-04T01:03:30.034Z,100096.02
2019-04-04T01:06:21.557Z,100091.26
2019-04-04T01:09:13.104Z,100069.78
2019-04-04T01:12:01.859Z,100054.94
2019-04-04T01:14:51.198Z,100074.03
2019-04-04T01:17:41.120Z,100086.06
2019-04-04T01:20:30.721Z,100097.20
2019-04-04T01:23:20.485Z,100102.16
2019-04-04T01:26:09.471Z,100080.61
2019-04-04T01:28:58.309Z,100087.38
2019-04-04T01:31:47.292Z,100115.32
2019-04-04T01:34:36.867Z,100114.98
2019-04-04T01:37:27.795Z,100114.63
2019-04-04T01:40:18.017Z,100116.09
2019-04-04T01:43:09.253Z,100099.98
2019-04-04T01:45:58.719Z,100103.61
2019-04-04T01:48:49.969Z,100090.12
2019-04-04T01:51:39.162Z,100112.66
2019-04-04T01:54:29.985Z,100111.03
2019-04-04T01:57:19.804Z,100106.23
2019-04-04T02:00:10.472Z,100100.94
2019-04-04T02:03:00.253Z,100083.45
2019-04-04T02:05:49.131Z,100079.54
2019-04-04T02:08:38.072Z,100083.23
2019-04-04T02:11:28.049Z,100089.85
2019-04-04T02:14:19.478Z,100092.63
2019-04-04T02:17:08.608Z,100092.28
2019-04-04T02:19:57.837Z,100094.14
2019-04-04T02:22:47.557Z,100078.38
2019-04-04T02:25:36.587Z,100074.47
2019-04-04T02:28:25.659Z,100072.27
2019-04-04T02:31:15.771Z,100064.86
2019-04-04T02:34:06.444Z,100071.92
2019-04-04T02:36:58.065Z,100066.31
2019-04-04T02:39:47.769Z,100061.11
2019-04-04T02:42:37.229Z,100051.48
2019-04-04T02:45:26.722Z,100046.24
2019-04-04T02:48:16.231Z,100042.59
2019-04-04T02:51:08.026Z,100043.06
2019-04-04T02:53:57.585Z,100031.22
2019-04-04T02:56:48.566Z,100036.09
2019-04-04T02:59:38.469Z,100034.40
2019-04-04T03:02:28.849Z,100038.88
2019-04-04T03:05:20.130Z,100034.05
2019-04-04T03:08:09.098Z,100037.14
2019-04-04T03:10:58.994Z,100036.22
2019-04-04T03:13:48.627Z,100031.47
2019-04-04T03:16:38.133Z,100031.47
2019-04-04T03:19:27.822Z,100034.97
2019-04-04T03:22:17.634Z,100042.05
2019-04-04T03:25:06.461Z,100038.08
2019-04-04T03:27:58.248Z,100034.18
2019-04-04T03:30:54.358Z,100033.58
2019-04-04T03:33:37.894Z,100019.09
2019-04-04T03:36:28.050Z,100006.77
2019-04-04T03:39:19.241Z,100027.50
2019-04-04T03:42:08.350Z,100015.59
2019-04-04T03:44:58.025Z,100008.44
2019-04-04T03:47:49.402Z,100014.27
2019-04-04T03:50:39.283Z,100004.59
2019-04-04T03:53:29.176Z,100009.41
2019-04-04T03:56:19.086Z,100012.95
2019-04-04T03:59:08.752Z,100019.56
2019-04-04T04:01:58.764Z,100017.30
2019-04-04T04:04:47.831Z,100008.98
2019-04-04T04:07:37.098Z,100007.72
2019-04-04T04:10:26.706Z,100007.24
2019-04-04T04:13:17.300Z,100003.75
2019-04-04T04:16:11.987Z,100020.06
2019-04-04T04:19:01.627Z,100040.32
2019-04-04T04:21:50.406Z,100033.30
2019-04-04T04:24:39.160Z,100042.56
2019-04-04T04:27:29.231Z,100041.70
2019-04-04T04:30:18.697Z,100041.23
2019-04-04T04:33:08.137Z,100047.85
2019-04-04T04:35:57.064Z,100048.33
2019-04-04T04:38:48.312Z,100043.50
2019-04-04T04:41:37.710Z,100037.33
2019-04-04T04:44:26.620Z,100043.53
2019-04-04T04:47:16.740Z,100050.56
2019-04-04T04:50:09.658Z,100055.00
2019-04-04T04:52:57.051Z,100058.09
2019-04-04T04:55:45.805Z,100066.02
2019-04-04T04:58:34.851Z,100058.63
2019-04-04T05:01:24.030Z,100052.86
2019-04-04T05:04:14.325Z,100052.48
2019-04-04T05:07:07.062Z,100049.42
2019-04-04T05:09:55.163Z,100054.72
2019-04-04T05:12:44.350Z,100062.66
2019-04-04T05:15:33.632Z,100062.72
2019-04-04T05:18:22.716Z,100068.01
2019-04-04T05:21:24.403Z,100069.39
2019-04-04T05:24:04.342Z,100066.27
2019-04-04T05:26:53.979Z,100065.86
2019-04-04T05:29:44.905Z,100067.25
2019-04-04T05:32:34.482Z,100067.25
2019-04-04T05:35:24.240Z,100063.75
2019-04-04T05:38:13.699Z,100071.69
2019-04-04T05:41:03.433Z,100066.87
2019-04-04T05:43:54.037Z,100066.87
2019-04-04T05:46:43.415Z,100067.78
2019-04-04T05:49:33.085Z,100070.84
2019-04-04T05:52:23.695Z,100063.28
2019-04-04T05:55:14.941Z,100060.19
2019-04-04T05:58:08.513Z,100061.80
2019-04-04T06:01:01.522Z,100063.44
2019-04-04T06:03:48.789Z,100072.33
2019-04-04T06:06:38.229Z,100071.37
2019-04-04T06:09:29.484Z,100086.00
2019-04-04T06:12:19.911Z,100093.19
2019-04-04T06:15:09.724Z,100095.36
2019-04-04T06:17:59.281Z,100109.47
2019-04-04T06:20:49.209Z,100109.82
2019-04-04T06:23:39.546Z,100105.37
2019-04-04T06:26:29.140Z,100104.41
2019-04-04T06:29:19.267Z,100103.88
2019-04-04T06:32:08.734Z,100108.73
2019-04-04T06:34:58.413Z,100107.72
2019-04-04T06:37:51.492Z,100108.95
2019-04-04T06:40:42.994Z,100102.70
2019-04-04T06:43:32.702Z,100103.91
2019-04-04T06:46:23.019Z,100094.55
2019-04-04T06:49:13.073Z,100099.30
2019-04-04T06:52:02.686Z,100097.01
2019-04-04T06:54:52.403Z,100099.94
2019-04-04T06:57:43.975Z,100102.52
2019-04-04T07:00:33.121Z,100106.30
2019-04-04T07:03:23.033Z,100103.46
2019-04-04T07:06:12.994Z,100109.98
2019-04-04T07:09:04.886Z,100122.63
2019-04-04T07:11:54.410Z,100127.28
2019-04-04T07:14:46.254Z,100131.06
2019-04-04T07:17:39.919Z,100130.94
2019-04-04T07:20:28.863Z,100144.46
2019-04-04T07:23:18.287Z,100138.56
2019-04-04T07:26:09.591Z,100128.72
2019-04-04T07:29:01.037Z,100126.81
2019-04-04T07:31:54.328Z,100126.55
2019-04-04T07:34:45.812Z,100131.66
2019-04-04T07:37:56.636Z,100113.38
2019-04-04T07:40:44.181Z,100118.41
2019-04-04T07:43:34.311Z,100120.00
2019-04-04T07:46:24.547Z,100114.97
2019-04-04T07:49:14.824Z,100113.00
2019-04-04T07:52:03.977Z,100113.78
2019-04-04T07:54:52.927Z,100112.25
2019-04-04T07:57:42.094Z,100128.80
2019-04-04T08:00:31.398Z,100133.83
2019-04-04T08:03:21.147Z,100131.07
2019-04-04T08:06:10.387Z,100131.34
2019-04-04T08:08:59.888Z,100133.71
2019-04-04T08:11:48.773Z,100130.00
2019-04-04T08:14:37.830Z,100135.50
2019-04-04T08:17:27.009Z,100138.72
2019-04-04T08:20:16.989Z,100136.73
2019-04-04T08:23:06.233Z,100139.17
2019-04-04T08:25:55.373Z,100130.08
2019-04-04T08:28:45.042Z,100131.52
2019-04-04T08:31:34.297Z,100139.23
2019-04-04T08:36:56.540Z,100143.14
2019-04-04T08:39:45.465Z,100146.60
2019-04-04T08:42:35.006Z,100134.28
2019-04-04T08:45:23.968Z,100137.59
2019-04-04T08:48:13.124Z,100148.84
2019-04-04T08:51:02.842Z,100159.24
2019-04-04T08:53:51.730Z,100164.81
2019-04-04T08:56:41.127Z,100168.60
2019-04-04T08:59:30.220Z,100175.94
2019-04-04T09:02:19.871Z,100180.73
2019-04-04T09:05:12.108Z,100187.15
2019-04-04T09:08:00.597Z,100201.13
2019-04-04T09:10:49.408Z,100210.31
2019-04-04T09:13:39.139Z,100209.69
2019-04-04T09:16:28.096Z,100217.06
2019-04-04T09:19:17.650Z,100224.81
2019-04-04T09:22:10.621Z,100236.55
2019-04-04T09:24:57.613Z,100241.19
2019-04-04T09:27:46.989Z,100245.27
2019-04-04T09:30:35.846Z,100241.83
2019-04-04T09:33:25.210Z,100232.16
2019-04-04T09:36:14.292Z,100234.06
2019-04-04T09:39:04.658Z,100233.52
2019-04-04T09:41:53.773Z,100223.36
2019-04-04T09:44:43.501Z,100213.52
2019-04-04T09:47:32.841Z,100214.69
2019-04-04T09:50:21.851Z,100218.09
2019-04-04T09:53:11.103Z,100211.18
2019-04-04T09:56:00.045Z,100215.31
2019-04-04T09:58:49.790Z,100224.75
2019-04-04T10:01:39.335Z,100215.09
2019-04-04T10:04:28.823Z,100223.20
2019-04-04T10:07:18.600Z,100232.55
2019-04-04T10:10:08.259Z,100239.22
2019-04-04T10:12:59.671Z,100238.45
2019-04-04T10:15:50.925Z,100241.38
2019-04-04T10:18:40.490Z,100236.56
2019-04-04T10:21:30.967Z,100234.47
2019-04-04T10:24:23.147Z,100218.98
2019-04-04T10:27:12.421Z,100215.50
2019-04-04T10:30:01.983Z,100216.37
2019-04-04T10:32:52.869Z,100205.72
2019-04-04T10:35:42.483Z,100207.38
2019-04-04T10:38:33.177Z,100213.91
2019-04-04T10:41:25.796Z,100213.28
2019-04-04T10:44:15.621Z,100209.59
2019-04-04T10:47:08.216Z,100214.16
2019-04-04T10:49:58.564Z,100222.28
2019-04-04T10:52:54.536Z,100223.36
2019-04-04T10:55:44.412Z,100236.53
2019-04-04T10:58:37.082Z,100227.66
2019-04-04T11:01:27.357Z,100223.65
2019-04-04T11:04:17.148Z,100225.93
2019-04-04T11:07:09.872Z,100221.06
2019-04-04T11:10:01.105Z,100218.28
2019-04-04T11:12:52.415Z,100215.00
2019-04-04T11:15:43.637Z,100215.55
2019-04-04T11:18:46.571Z,100238.65
2019-04-04T11:21:35.698Z,100223.98
2019-04-04T11:24:24.994Z,100232.63
2019-04-04T11:27:17.651Z,100215.82
2019-04-04T11:30:08.598Z,100218.09
2019-04-04T11:32:57.926Z,100205.55
2019-04-04T11:35:47.784Z,100197.77
2019-04-04T11:38:39.203Z,100196.77
2019-04-04T11:41:31.375Z,100199.48
2019-04-04T11:44:21.122Z,100201.98
2019-04-04T11:47:12.386Z,100192.60
2019-04-04T11:50:01.488Z,100200.84
2019-04-04T11:52:51.094Z,100202.47
2019-04-04T11:55:40.891Z,100200.10
2019-04-04T11:58:30.325Z,100209.03
2019-04-04T12:01:21.794Z,100201.34
2019-04-04T12:04:13.525Z,100209.92
2019-04-04T12:07:03.610Z,100205.14
2019-04-04T12:10:06.442Z,100202.45
2019-04-04T12:12:47.525Z,100214.44
2019-04-04T12:15:39.098Z,100213.97
2019-04-04T12:18:30.029Z,100225.33
2019-04-04T12:21:19.643Z,100223.48
2019-04-04T12:24:09.409Z,100236.59
2019-04-04T12:27:00.119Z,100242.56
2019-04-04T12:29:53.656Z,100253.95
2019-04-04T12:32:44.540Z,100254.33
2019-04-04T12:35:33.977Z,100253.44
2019-04-04T12:38:25.966Z,100245.02
2019-04-04T12:41:17.455Z,100238.75
2019-04-04T12:44:07.494Z,100246.34
2019-04-04T12:46:59.529Z,100259.28
2019-04-04T12:49:51.677Z,100252.42
2019-04-04T12:52:41.833Z,100238.27
2019-04-04T12:55:32.142Z,100247.69
2019-04-04T12:58:26.697Z,100253.41
2019-04-04T13:01:16.135Z,100255.98
2019-04-04T13:04:05.908Z,100254.05
2019-04-04T13:06:55.314Z,100252.70
2019-04-04T13:09:45.044Z,100253.41
2019-04-04T13:12:33.949Z,100247.01
2019-04-04T13:15:23.580Z,100244.46
2019-04-04T13:18:12.983Z,100258.28
2019-04-04T13:21:02.674Z,100252.14
2019-04-04T13:23:52.339Z,100256.30
2019-04-04T13:26:42.797Z,100264.47
2019-04-04T13:29:32.574Z,100260.80
2019-04-04T13:32:22.339Z,100263.84
2019-04-04T13:35:11.670Z,100256.48
2019-04-04T13:38:01.796Z,100242.06
2019-04-04T13:40:52.087Z,100249.86
2019-04-04T13:43:41.285Z,100251.93
2019-04-04T13:46:30.992Z,100258.84
2019-04-04T13:49:20.561Z,100262.14
2019-04-04T13:52:11.723Z,100260.66
2019-04-04T13:55:01.751Z,100253.50
2019-04-04T13:57:51.503Z,100254.77
2019-04-04T14:00:43.674Z,100263.09
2019-04-04T14:03:34.450Z,100259.83
2019-04-04T14:06:25.031Z,100254.34
2019-04-04T14:09:15.140Z,100246.28
2019-04-04T14:12:05.362Z,100253.34
2019-04-04T14:14:55.008Z,100264.47
2019-04-04T14:17:44.630Z,100271.18
2019-04-04T14:20:35.083Z,100284.22
2019-04-04T14:23:24.350Z,100295.08
2019-04-04T14:26:19.026Z,100293.96
2019-04-04T14:29:11.112Z,100305.78
2019-04-04T14:32:01.364Z,100315.52
2019-04-04T14:34:51.041Z,100316.34
2019-04-04T14:37:40.333Z,100316.66
2019-04-04T14:40:30.252Z,100322.09
2019-04-04T14:43:19.686Z,100315.83
2019-04-04T14:46:09.136Z,100312.98
2019-04-04T14:48:58.677Z,100309.18
2019-04-04T14:51:48.192Z,100301.36
2019-04-04T14:54:39.455Z,100300.97
2019-04-04T14:57:29.316Z,100302.92
2019-04-04T15:00:21.413Z,100314.61
2019-04-04T15:03:11.840Z,100317.30
2019-04-04T15:06:03.901Z,100328.41
2019-04-04T15:08:54.716Z,100339.60
2019-04-04T15:11:44.559Z,100341.90
2019-04-04T15:14:39.512Z,100341.90
2019-04-04T15:17:35.699Z,100346.11
2019-04-04T15:20:27.619Z,100344.61
2019-04-04T15:23:17.862Z,100340.80
2019-04-04T15:26:17.289Z,100351.25
2019-04-04T15:29:11.431Z,100358.78
2019-04-04T15:32:04.515Z,100359.11
2019-04-04T15:34:54.836Z,100350.89
2019-04-04T15:37:50.424Z,100340.84
2019-04-04T15:40:40.517Z,100364.42
2019-04-04T15:43:30.213Z,100365.63
2019-04-04T15:46:21.470Z,100363.23
2019-04-04T15:49:10.920Z,100375.61
2019-04-04T15:52:02.562Z,100386.76
2019-04-04T15:54:55.079Z,100396.34
2019-04-04T15:57:43.999Z,100388.69
2019-04-04T16:00:34.788Z,100381.08
2019-04-04T16:03:24.600Z,100377.47
2019-04-04T16:06:14.455Z,100383.60
2019-04-04T16:09:05.643Z,100379.02
2019-04-04T16:11:55.256Z,100370.44
2019-04-04T16:14:45.225Z,100376.67
2019-04-04T16:17:34.593Z,100368.94
2019-04-04T16:20:24.316Z,100363.50
2019-04-04T16:23:13.632Z,100378.16
2019-04-04T16:26:03.345Z,100387.34
2019-04-04T16:28:53.002Z,100388.49
2019-04-04T16:31:41.984Z,100396.83
2019-04-04T16:34:31.633Z,100406.01
2019-04-04T16:37:21.093Z,100410.68
2019-04-04T16:40:10.106Z,100404.39
2019-04-04T16:42:59.414Z,100429.03
2019-04-04T16:45:49.157Z,100423.95
2019-04-04T16:48:39.364Z,100427.77
2019-04-04T16:51:30.310Z,100434.75
2019-04-04T16:54:19.193Z,100444.70
2019-04-04T16:57:08.759Z,100435.98
2019-04-04T17:00:01.343Z,100436.19
2019-04-04T17:02:51.234Z,100434.26
2019-04-04T17:05:40.390Z,100447.37
2019-04-04T17:08:29.564Z,100446.78
2019-04-04T17:11:19.720Z,100457.67
2019-04-04T17:14:09.207Z,100464.16
2019-04-04T17:17:00.514Z,100468.36
2019-04-04T17:19:50.286Z,100468.16
2019-04-04T17:22:39.563Z,100472.35
2019-04-04T17:25:28.838Z,100474.83
2019-04-04T17:28:18.511Z,100474.22
2019-04-04T17:31:08.482Z,100470.40
2019-04-04T17:33:58.699Z,100468.86
2019-04-04T17:36:47.966Z,100468.19
2019-04-04T17:39:37.647Z,100471.51
2019-04-04T17:42:32.088Z,100465.59
2019-04-04T17:45:19.601Z,100461.73
2019-04-04T17:48:08.553Z,100461.52
2019-04-04T17:50:57.590Z,100460.86
2019-04-04T17:53:46.973Z,100470.48
2019-04-04T17:56:38.834Z,100479.14
2019-04-04T17:59:30.392Z,100486.48
2019-04-04T18:02:20.101Z,100495.54
2019-04-04T18:05:09.070Z,100502.00
2019-04-04T18:07:58.566Z,100505.70
2019-04-04T18:10:48.266Z,100511.80
2019-04-04T18:13:37.652Z,100510.33
2019-04-04T18:16:27.290Z,100516.31
2019-04-04T18:19:17.207Z,100510.26
2019-04-04T18:22:07.310Z,100515.86
2019-04-04T18:24:57.313Z,100501.92
2019-04-04T18:27:46.346Z,100506.56
2019-04-04T18:30:35.636Z,100504.06
2019-04-04T18:33:25.294Z,100523.02
2019-04-04T18:36:15.110Z,100542.82
2019-04-04T18:39:05.534Z,100540.38
2019-04-04T18:41:54.989Z,100519.23
2019-04-04T18:44:44.849Z,100524.44
2019-04-04T18:47:34.188Z,100532.70
2019-04-04T18:50:23.529Z,100538.20
2019-04-04T18:53:12.818Z,100537.98
2019-04-04T18:56:02.057Z,100537.43
2019-04-04T18:58:51.034Z,100541.69
2019-04-04T19:01:40.647Z,100537.93
2019-04-04T19:04:30.353Z,100552.37
2019-04-04T19:07:20.040Z,100559.73
2019-04-04T19:10:09.207Z,100563.05
2019-04-04T19:13:05.233Z,100575.75
2019-04-04T19:15:50.691Z,100582.19
2019-04-04T19:18:40.457Z,100585.94
2019-04-04T19:21:30.149Z,100593.33
2019-04-04T19:24:21.026Z,100598.42
2019-04-04T19:27:11.255Z,100593.78
2019-04-04T19:30:00.281Z,100599.27
2019-04-04T19:32:49.688Z,100594.25
2019-04-04T19:35:39.501Z,100593.45
2019-04-04T19:38:29.022Z,100591.02
2019-04-04T19:41:19.821Z,100584.59
2019-04-04T19:44:09.398Z,100584.34
2019-04-04T19:46:59.646Z,100582.28
2019-04-04T19:49:51.143Z,100583.32
2019-04-04T19:52:41.040Z,100577.41
2019-04-04T19:55:30.254Z,100582.02
2019-04-04T19:58:21.254Z,100591.57
2019-04-04T20:01:11.253Z,100603.30
2019-04-04T20:04:01.006Z,100613.34
2019-04-04T20:06:50.592Z,100612.61
2019-04-04T20:09:39.894Z,100614.09
2019-04-04T20:12:29.647Z,100610.31
2019-04-04T20:15:19.558Z,100609.10
2019-04-04T20:18:09.566Z,100614.58
2019-04-04T20:21:01.497Z,100615.20
2019-04-04T20:23:55.478Z,100612.69
2019-04-04T20:26:50.074Z,100606.22
2019-04-04T20:29:44.685Z,100609.03
2019-04-04T20:32:38.478Z,100608.70
2019-04-04T20:35:29.799Z,100601.34
2019-04-04T20:38:27.771Z,100609.84
2019-04-04T20:41:29.518Z,100610.91
2019-04-04T20:44:22.554Z,100611.05
2019-04-04T20:47:22.249Z,100613.02
2019-04-04T20:50:13.063Z,100618.82
2019-04-04T20:53:03.352Z,100627.88
2019-04-04T20:55:53.138Z,100627.09
2019-04-04T20:58:43.282Z,100631.63
2019-04-04T21:01:34.076Z,100636.62
2019-04-04T21:04:24.210Z,100635.43
2019-04-04T21:07:16.106Z,100640.01
2019-04-04T21:10:08.840Z,100652.53
2019-04-04T21:12:58.586Z,100651.72
2019-04-04T21:15:49.303Z,100655.84
2019-04-04T21:18:43.489Z,100652.84
2019-04-04T21:21:37.931Z,100660.48
2019-04-04T21:24:29.874Z,100661.95
2019-04-04T21:27:23.924Z,100672.22
2019-04-04T21:30:13.929Z,100667.89
2019-04-04T21:33:03.202Z,100670.21
2019-04-04T21:35:52.703Z,100680.03
2019-04-04T21:38:42.203Z,100679.80
2019-04-04T21:41:31.583Z,100690.87
2019-04-04T21:44:20.445Z,100692.82
2019-04-04T21:47:10.089Z,100693.73
2019-04-04T21:49:59.699Z,100692.13
2019-04-04T21:52:49.376Z,100691.34
2019-04-04T21:55:38.552Z,100695.78
2019-04-04T21:58:27.248Z,100698.64
2019-04-04T22:01:17.051Z,100696.05
2019-04-04T22:04:06.866Z,100689.91
2019-04-04T22:06:55.628Z,100686.45
2019-04-04T22:09:44.554Z,100687.92
2019-04-04T22:12:34.942Z,100683.59
2019-04-04T22:15:24.300Z,100682.39
2019-04-04T22:18:12.914Z,100686.09
2019-04-04T22:21:05.771Z,100684.42
2019-04-04T22:23:55.479Z,100687.27
2019-04-04T22:26:45.812Z,100691.77
2019-04-04T22:29:35.677Z,100696.36
2019-04-04T22:32:24.960Z,100691.17
2019-04-04T22:35:14.689Z,100684.65
2019-04-04T22:38:04.412Z,100690.53
2019-04-04T22:40:53.193Z,100696.45
2019-04-04T22:43:42.385Z,100689.97
2019-04-04T22:46:32.251Z,100690.09
2019-04-04T22:49:21.627Z,100703.50
2019-04-04T22:52:11.366Z,100716.91
2019-04-04T22:55:00.698Z,100717.09
2019-04-04T22:57:50.279Z,100710.55
2019-04-04T23:00:39.495Z,100714.71
2019-04-04T23:03:29.521Z,100706.02
2019-04-04T23:06:18.517Z,100709.23
2019-04-04T23:09:08.505Z,100713.81
2019-04-04T23:11:58.888Z,100712.63
2019-04-04T23:14:49.159Z,100729.16
2019-04-04T23:17:38.551Z,100731.52
2019-04-04T23:20:27.423Z,100727.70
2019-04-04T23:23:16.086Z,100724.28
2019-04-04T23:26:05.618Z,100716.44
2019-04-04T23:28:55.067Z,100716.08
2019-04-04T23:31:44.882Z,100725.84
2019-04-04T23:34:34.365Z,100730.00
2019-04-04T23:37:23.497Z,100726.11
2019-04-04T23:40:13.165Z,100725.78
2019-04-04T23:43:03.167Z,100726.33
2019-04-04T23:45:55.325Z,100719.75
2019-04-04T23:48:44.901Z,100711.44
2019-04-04T23:51:33.887Z,100719.52
2019-04-04T23:54:22.866Z,100724.87
2019-04-04T23:57:12.737Z,100728.50
